createdAt,value
2018-02-08T00:00:55.909Z,-4.50
2018-02-08T00:03:22.087Z,-4.60
2018-02-08T00:05:48.600Z,-4.60
2018-02-08T00:08:14.785Z,-4.60
2018-02-08T00:10:42.045Z,-4.60
2018-02-08T00:13:08.175Z,-4.70
2018-02-08T00:15:34.278Z,-4.70
2018-02-08T00:18:00.758Z,-4.70
2018-02-08T00:20:26.845Z,-4.70
2018-02-08T00:22:52.936Z,-4.70
2018-02-08T00:25:19.442Z,-4.70
2018-02-08T00:27:45.522Z,-4.70
2018-02-08T00:30:11.655Z,-4.70
2018-02-08T00:32:38.214Z,-4.70
2018-02-08T00:35:04.302Z,-4.70
2018-02-08T00:37:30.391Z,-4.80
2018-02-08T00:39:57.240Z,-4.80
2018-02-08T00:42:23.345Z,-4.90
2018-02-08T00:44:49.732Z,-4.80
2018-02-08T00:47:15.863Z,-4.90
2018-02-08T00:49:42.095Z,-4.90
2018-02-08T00:52:08.214Z,-4.90
2018-02-08T00:54:34.324Z,-4.90
2018-02-08T00:57:01.548Z,-4.90
2018-02-08T00:59:27.671Z,-4.90
2018-02-08T01:01:54.514Z,-4.90
2018-02-08T01:04:21.394Z,-4.90
2018-02-08T01:06:47.551Z,-4.90
2018-02-08T01:09:14.055Z,-4.90
2018-02-08T01:11:40.159Z,-4.90
2018-02-08T01:14:07.002Z,-5.00
2018-02-08T01:16:33.107Z,-5.00
2018-02-08T01:18:59.405Z,-5.00
2018-02-08T01:21:25.815Z,-5.00
2018-02-08T01:23:53.068Z,-5.00
2018-02-08T01:26:19.173Z,-5.10
2018-02-08T01:28:45.281Z,-5.00
2018-02-08T01:31:12.142Z,-5.00
2018-02-08T01:33:39.360Z,-5.00
2018-02-08T01:36:05.528Z,-5.00
2018-02-08T01:38:31.611Z,-5.00
2018-02-08T01:40:57.711Z,-5.00
2018-02-08T01:43:23.828Z,-5.00
2018-02-08T01:45:50.502Z,-5.10
2018-02-08T01:48:16.627Z,-5.00
2018-02-08T01:50:42.756Z,-5.10
2018-02-08T01:53:08.946Z,-5.10
2018-02-08T01:55:35.038Z,-5.20
2018-02-08T01:58:01.505Z,-5.10
2018-02-08T02:00:27.639Z,-5.10
2018-02-08T02:02:53.755Z,-5.10
2018-02-08T02:05:20.292Z,-5.30
2018-02-08T02:07:46.503Z,-5.30
2018-02-08T02:10:12.670Z,-5.30
2018-02-08T02:12:39.204Z,-5.30
2018-02-08T02:15:06.087Z,-5.20
2018-02-08T02:17:32.193Z,-5.30
2018-02-08T02:19:59.375Z,-5.30
2018-02-08T02:22:25.466Z,-5.30
2018-02-08T02:24:51.572Z,-5.30
2018-02-08T02:27:19.810Z,-5.30
2018-02-08T02:29:45.903Z,-5.30
2018-02-08T02:32:13.107Z,-5.30
2018-02-08T02:34:39.223Z,-5.30
2018-02-08T02:37:05.327Z,-5.30
2018-02-08T02:39:31.443Z,-5.30
2018-02-08T02:41:57.548Z,-5.30
2018-02-08T02:44:24.252Z,-5.30
2018-02-08T02:46:50.447Z,-5.30
2018-02-08T02:49:16.544Z,-5.30
2018-02-08T02:51:43.397Z,-5.40
2018-02-08T02:54:09.483Z,-5.40
2018-02-08T02:56:35.574Z,-5.30
2018-02-08T02:59:01.681Z,-5.40
2018-02-08T03:01:27.815Z,-5.40
2018-02-08T03:03:53.925Z,-5.40
2018-02-08T03:06:20.018Z,-5.40
2018-02-08T03:08:46.389Z,-5.40
2018-02-08T03:11:12.517Z,-5.40
2018-02-08T03:13:38.608Z,-5.40
2018-02-08T03:16:05.484Z,-5.40
2018-02-08T03:18:31.605Z,-5.50
2018-02-08T03:20:58.066Z,-5.40
2018-02-08T03:23:24.170Z,-5.50
2018-02-08T03:25:50.291Z,-5.50
2018-02-08T03:28:16.411Z,-5.50
2018-02-08T03:30:46.447Z,-5.50
2018-02-08T03:33:12.540Z,-5.50
2018-02-08T03:35:38.809Z,-5.50
2018-02-08T03:38:04.933Z,-5.50
2018-02-08T03:40:31.552Z,-5.50
2018-02-08T03:42:57.933Z,-5.40
2018-02-08T03:45:24.037Z,-5.40
2018-02-08T03:47:50.152Z,-5.50
2018-02-08T03:50:16.486Z,-5.50
2018-02-08T03:52:42.861Z,-5.50
2018-02-08T03:55:09.683Z,-5.50
2018-02-08T03:57:35.785Z,-5.50
2018-02-08T04:00:02.092Z,-5.50
2018-02-08T04:02:28.239Z,-5.60
2018-02-08T04:04:54.689Z,-5.60
2018-02-08T04:07:20.795Z,-5.50
2018-02-08T04:09:46.906Z,-5.50
2018-02-08T04:12:12.997Z,-5.50
2018-02-08T04:14:39.866Z,-5.60
2018-02-08T04:17:06.435Z,-5.60
2018-02-08T04:19:32.704Z,-5.60
2018-02-08T04:21:58.810Z,-5.60
2018-02-08T04:24:25.426Z,-5.60
2018-02-08T04:26:51.523Z,-5.60
2018-02-08T04:29:17.607Z,-5.60
2018-02-08T04:31:43.727Z,-5.60
2018-02-08T04:34:09.822Z,-5.70
2018-02-08T04:36:36.189Z,-5.70
2018-02-08T04:39:15.304Z,-5.70
2018-02-08T04:41:54.007Z,-5.70
2018-02-08T04:44:32.434Z,-5.70
2018-02-08T04:50:00.538Z,-5.70
2018-02-08T04:52:29.150Z,-5.70
2018-02-08T04:54:56.685Z,-5.70
2018-02-08T04:57:24.950Z,-5.70
2018-02-08T04:59:53.240Z,-5.70
2018-02-08T05:02:21.545Z,-5.70
2018-02-08T05:04:49.477Z,-5.70
2018-02-08T05:07:17.051Z,-5.70
2018-02-08T05:09:44.565Z,-5.70
2018-02-08T05:12:12.088Z,-5.70
2018-02-08T05:14:39.668Z,-5.60
2018-02-08T05:17:07.532Z,-5.70
2018-02-08T05:19:35.045Z,-5.70
2018-02-08T05:22:02.563Z,-5.70
2018-02-08T05:24:30.478Z,-5.70
2018-02-08T05:26:57.987Z,-5.70
2018-02-08T05:29:25.502Z,-5.70
2018-02-08T05:31:53.464Z,-5.70
2018-02-08T05:34:21.055Z,-5.80
2018-02-08T05:36:48.625Z,-5.70
2018-02-08T05:39:16.148Z,-5.80
2018-02-08T05:41:43.647Z,-5.80
2018-02-08T05:44:11.567Z,-5.70
2018-02-08T05:46:39.212Z,-5.70
2018-02-08T05:49:07.503Z,-5.70
2018-02-08T05:51:35.937Z,-5.70
2018-02-08T05:54:03.511Z,-5.70
2018-02-08T05:56:31.422Z,-5.70
2018-02-08T05:58:58.933Z,-5.70
2018-02-08T06:01:26.443Z,-5.80
2018-02-08T06:03:53.967Z,-5.70
2018-02-08T06:06:21.473Z,-5.70
2018-02-08T06:08:49.309Z,-5.70
2018-02-08T06:11:16.818Z,-5.70
2018-02-08T06:13:44.329Z,-5.70
2018-02-08T06:16:11.864Z,-5.70
2018-02-08T06:18:39.539Z,-5.70
2018-02-08T06:21:07.461Z,-5.70
2018-02-08T06:23:34.986Z,-5.60
2018-02-08T06:26:02.635Z,-5.70
2018-02-08T06:28:30.505Z,-5.70
2018-02-08T06:30:58.155Z,-5.60
2018-02-08T06:33:25.670Z,-5.60
2018-02-08T06:35:53.475Z,-5.60
2018-02-08T06:38:21.017Z,-5.60
2018-02-08T06:40:49.301Z,-5.60
2018-02-08T06:43:17.712Z,-5.70
2018-02-08T06:45:45.243Z,-5.70
2018-02-08T06:48:13.026Z,-5.60
2018-02-08T06:50:40.556Z,-5.70
2018-02-08T06:53:08.820Z,-5.60
2018-02-08T06:55:37.123Z,-5.60
2018-02-08T06:58:05.039Z,-5.60
2018-02-08T07:00:32.726Z,-5.70
2018-02-08T07:03:00.294Z,-5.60
2018-02-08T07:05:28.380Z,-5.60
2018-02-08T07:07:56.705Z,-5.60
2018-02-08T07:10:24.324Z,-5.60
2018-02-08T07:12:51.931Z,-5.60
2018-02-08T07:15:19.697Z,-5.60
2018-02-08T07:17:47.467Z,-5.60
2018-02-08T07:20:15.086Z,-5.50
2018-02-08T07:22:42.658Z,-5.60
2018-02-08T07:25:10.434Z,-5.50
2018-02-08T07:27:38.101Z,-5.50
2018-02-08T07:30:06.759Z,-5.40
2018-02-08T07:32:34.398Z,-5.40
2018-02-08T07:35:01.961Z,-5.40
2018-02-08T07:37:29.597Z,-5.40
2018-02-08T07:39:57.978Z,-5.30
2018-02-08T07:42:25.564Z,-5.30
2018-02-08T07:44:53.199Z,-5.30
2018-02-08T07:47:21.010Z,-5.20
2018-02-08T07:49:48.558Z,-5.20
2018-02-08T07:52:16.134Z,-5.10
2018-02-08T07:54:43.794Z,-5.10
2018-02-08T07:57:11.363Z,-5.10
2018-02-08T07:59:38.967Z,-5.10
2018-02-08T08:02:07.324Z,-5.00
2018-02-08T08:04:34.896Z,-5.00
2018-02-08T08:07:02.442Z,-4.90
2018-02-08T08:09:29.973Z,-4.80
2018-02-08T08:11:57.496Z,-4.80
2018-02-08T08:14:25.060Z,-4.70
2018-02-08T08:16:52.610Z,-4.60
2018-02-08T08:19:20.139Z,-4.60
2018-02-08T08:21:48.414Z,-4.40
2018-02-08T08:24:16.733Z,-4.30
2018-02-08T08:26:44.313Z,-4.30
2018-02-08T08:29:11.841Z,-4.20
2018-02-08T08:31:39.406Z,-4.20
2018-02-08T08:34:06.943Z,-4.10
2018-02-08T08:36:35.228Z,-4.10
2018-02-08T08:39:02.764Z,-4.10
2018-02-08T08:41:30.308Z,-4.00
2018-02-08T08:43:57.824Z,-3.90
2018-02-08T08:46:25.348Z,-3.80
2018-02-08T08:48:53.609Z,-3.70
2018-02-08T08:51:21.284Z,-3.70
2018-02-08T08:53:49.580Z,-3.50
2018-02-08T08:56:17.145Z,-3.60
2018-02-08T08:58:44.658Z,-3.50
2018-02-08T09:01:12.934Z,-3.30
2018-02-08T09:03:40.552Z,-3.30
2018-02-08T09:06:08.060Z,-3.20
2018-02-08T09:08:35.588Z,-3.10
2018-02-08T09:11:03.132Z,-3.10
2018-02-08T09:13:30.639Z,-3.00
2018-02-08T09:15:58.163Z,-2.90
2018-02-08T09:18:25.685Z,-2.90
2018-02-08T09:20:53.184Z,-2.80
2018-02-08T09:23:20.696Z,-2.70
2018-02-08T09:25:48.243Z,-2.70
2018-02-08T09:28:16.520Z,-2.50
2018-02-08T09:30:44.871Z,-2.50
2018-02-08T09:33:12.410Z,-2.50
2018-02-08T09:35:39.928Z,-2.40
2018-02-08T09:38:07.491Z,-2.40
2018-02-08T09:40:35.231Z,-2.30
2018-02-08T09:43:02.735Z,-2.20
2018-02-08T09:45:30.454Z,-2.10
2018-02-08T09:47:58.005Z,-2.00
2018-02-08T09:50:25.522Z,-2.00
2018-02-08T09:52:53.252Z,-1.90
2018-02-08T09:55:20.927Z,-1.90
2018-02-08T09:57:48.485Z,-1.80
2018-02-08T10:00:18.786Z,-1.80
2018-02-08T10:02:47.052Z,-1.60
2018-02-08T10:05:15.322Z,-1.50
2018-02-08T10:07:43.601Z,-1.40
2018-02-08T10:10:11.893Z,-1.40
2018-02-08T10:12:39.418Z,-1.40
2018-02-08T10:15:06.935Z,-1.30
2018-02-08T10:17:34.501Z,-1.30
2018-02-08T10:20:02.040Z,-1.20
2018-02-08T10:22:29.554Z,-1.20
2018-02-08T10:24:57.056Z,-1.10
2018-02-08T10:27:24.658Z,-1.00
2018-02-08T10:29:52.486Z,-1.00
2018-02-08T10:32:19.998Z,-0.90
2018-02-08T10:34:47.512Z,-0.80
2018-02-08T10:37:15.047Z,-0.80
2018-02-08T10:39:44.056Z,-0.70
2018-02-08T10:42:15.741Z,-0.70
2018-02-08T10:44:44.096Z,-0.60
2018-02-08T10:47:11.640Z,-0.60
2018-02-08T10:49:39.178Z,-0.50
2018-02-08T10:52:07.517Z,-0.40
2018-02-08T10:54:35.026Z,-0.40
2018-02-08T10:57:02.563Z,-0.30
2018-02-08T10:59:30.173Z,-0.30
2018-02-08T11:01:57.949Z,-0.20
2018-02-08T11:04:25.467Z,-0.10
2018-02-08T11:06:53.018Z,0.00
2018-02-08T11:09:20.681Z,0.10
2018-02-08T11:11:48.179Z,0.20
2018-02-08T11:14:16.203Z,0.20
2018-02-08T11:16:43.771Z,0.30
2018-02-08T11:19:11.345Z,0.40
2018-02-08T11:21:38.878Z,0.50
2018-02-08T11:24:06.565Z,0.60
2018-02-08T11:26:34.083Z,0.60
2018-02-08T11:29:01.612Z,0.70
2018-02-08T11:31:29.140Z,0.80
2018-02-08T11:33:56.641Z,0.80
2018-02-08T11:36:24.310Z,0.80
2018-02-08T11:38:51.900Z,0.90
2018-02-08T11:41:19.412Z,1.00
2018-02-08T11:43:46.922Z,1.00
2018-02-08T11:46:14.493Z,1.00
2018-02-08T11:48:41.993Z,1.00
2018-02-08T11:51:09.538Z,1.10
2018-02-08T11:53:37.136Z,1.20
2018-02-08T11:56:04.647Z,1.20
2018-02-08T11:58:32.386Z,1.10
2018-02-08T12:00:59.946Z,1.00
2018-02-08T12:03:27.488Z,1.00
2018-02-08T12:05:55.045Z,1.00
2018-02-08T12:08:22.605Z,1.00
2018-02-08T12:10:50.157Z,1.10
2018-02-08T12:13:17.767Z,1.10
2018-02-08T12:15:45.336Z,1.20
2018-02-08T12:18:12.954Z,1.30
2018-02-08T12:20:41.267Z,1.80
2018-02-08T12:23:08.813Z,1.80
2018-02-08T12:25:36.378Z,2.20
2018-02-08T12:28:04.239Z,2.70
2018-02-08T12:30:31.779Z,3.10
2018-02-08T12:32:59.347Z,3.30
2018-02-08T12:35:26.938Z,3.60
2018-02-08T12:37:54.515Z,4.00
2018-02-08T12:40:22.111Z,4.30
2018-02-08T12:42:49.668Z,4.60
2018-02-08T12:45:17.634Z,5.00
2018-02-08T12:47:45.193Z,5.40
2018-02-08T12:50:12.819Z,5.80
2018-02-08T12:52:40.351Z,5.80
2018-02-08T12:55:07.900Z,5.80
2018-02-08T12:57:35.519Z,5.90
2018-02-08T13:00:04.177Z,6.00
2018-02-08T13:02:32.057Z,6.00
2018-02-08T13:04:59.638Z,6.20
2018-02-08T13:07:27.215Z,5.80
2018-02-08T13:09:54.756Z,6.10
2018-02-08T13:12:22.322Z,6.00
2018-02-08T13:14:49.868Z,6.40
2018-02-08T13:17:17.413Z,6.30
2018-02-08T13:19:45.017Z,5.90
2018-02-08T13:22:12.570Z,6.20
2018-02-08T13:24:40.129Z,6.40
2018-02-08T13:27:07.996Z,6.30
2018-02-08T13:29:35.559Z,6.20
2018-02-08T13:32:03.111Z,6.10
2018-02-08T13:34:30.633Z,6.00
2018-02-08T13:36:58.214Z,6.30
2018-02-08T13:39:26.507Z,6.20
2018-02-08T13:41:54.048Z,6.40
2018-02-08T13:44:22.447Z,6.50
2018-02-08T13:46:49.943Z,6.50
2018-02-08T13:49:20.905Z,6.40
2018-02-08T13:52:07.849Z,6.10
2018-02-08T13:54:50.263Z,6.10
2018-02-08T13:57:23.335Z,6.30
2018-02-08T14:00:10.305Z,6.30
2018-02-08T14:02:37.820Z,6.30
2018-02-08T14:05:05.325Z,6.20
2018-02-08T14:07:32.832Z,6.30
2018-02-08T14:10:00.354Z,6.30
2018-02-08T14:12:27.844Z,6.10
2018-02-08T14:14:55.366Z,6.00
2018-02-08T14:17:22.855Z,6.00
2018-02-08T14:19:50.724Z,6.10
2018-02-08T14:22:18.283Z,6.20
2018-02-08T14:24:45.852Z,6.10
2018-02-08T14:27:13.385Z,5.90
2018-02-08T14:29:41.660Z,5.60
2018-02-08T14:32:10.069Z,5.20
2018-02-08T14:34:37.565Z,5.20
2018-02-08T14:37:05.092Z,5.30
2018-02-08T14:39:32.600Z,5.10
2018-02-08T14:42:00.107Z,5.00
2018-02-08T14:44:27.742Z,4.90
2018-02-08T14:46:55.249Z,5.10
2018-02-08T14:49:22.757Z,4.90
2018-02-08T14:51:51.032Z,5.00
2018-02-08T14:54:19.417Z,5.10
2018-02-08T14:56:46.926Z,5.00
2018-02-08T14:59:14.476Z,5.00
2018-02-08T15:01:42.100Z,4.80
2018-02-08T15:04:09.767Z,4.60
2018-02-08T15:06:37.272Z,4.50
2018-02-08T15:09:04.782Z,4.60
2018-02-08T15:11:32.311Z,4.40
2018-02-08T15:13:59.978Z,4.40
2018-02-08T15:16:27.657Z,4.20
2018-02-08T15:18:55.893Z,4.20
2018-02-08T15:21:23.604Z,4.40
2018-02-08T15:23:51.106Z,4.30
2018-02-08T15:26:18.786Z,4.30
2018-02-08T15:28:46.308Z,4.10
2018-02-08T15:31:13.821Z,3.90
2018-02-08T15:33:41.328Z,3.60
2018-02-08T15:36:08.860Z,3.40
2018-02-08T15:38:36.486Z,3.50
2018-02-08T15:41:04.864Z,3.20
2018-02-08T15:43:33.168Z,3.10
2018-02-08T15:46:00.743Z,3.10
2018-02-08T15:48:28.250Z,3.00
2018-02-08T15:50:56.626Z,2.80
2018-02-08T15:53:24.186Z,2.80
2018-02-08T15:55:52.562Z,2.50
2018-02-08T15:58:20.931Z,2.30
2018-02-08T16:00:48.748Z,2.30
2018-02-08T16:03:16.338Z,2.30
2018-02-08T16:05:43.938Z,2.10
2018-02-08T16:08:12.254Z,1.90
2018-02-08T16:10:39.861Z,1.90
2018-02-08T16:13:08.278Z,1.70
2018-02-08T16:15:35.812Z,1.70
2018-02-08T16:18:03.351Z,1.70
2018-02-08T16:20:31.051Z,1.60
2018-02-08T16:22:58.553Z,1.50
2018-02-08T16:25:26.271Z,1.40
2018-02-08T16:27:53.842Z,1.30
2018-02-08T16:30:21.408Z,1.20
2018-02-08T16:32:49.018Z,1.10
2018-02-08T16:35:16.562Z,1.10
2018-02-08T16:37:44.253Z,1.00
2018-02-08T16:40:11.748Z,1.00
2018-02-08T16:42:39.254Z,0.90
2018-02-08T16:45:07.534Z,0.80
2018-02-08T16:47:35.036Z,0.80
2018-02-08T16:50:02.612Z,0.80
2018-02-08T16:52:30.104Z,0.70
2018-02-08T16:54:57.620Z,0.70
2018-02-08T16:57:25.248Z,0.70
2018-02-08T16:59:52.774Z,0.60
2018-02-08T17:02:20.374Z,0.50
2018-02-08T17:04:47.995Z,0.50
2018-02-08T17:07:15.584Z,0.40
2018-02-08T17:09:43.094Z,0.40
2018-02-08T17:12:10.694Z,0.40
2018-02-08T17:14:38.978Z,0.30
2018-02-08T17:17:06.483Z,0.20
2018-02-08T17:19:34.075Z,0.20
2018-02-08T17:22:02.465Z,0.10
2018-02-08T17:24:29.983Z,0.10
2018-02-08T17:26:57.491Z,0.10
2018-02-08T17:29:25.052Z,0.00
2018-02-08T17:31:52.613Z,0.10
2018-02-08T17:34:20.089Z,0.10
2018-02-08T17:36:47.634Z,0.00
2018-02-08T17:39:15.178Z,0.00
2018-02-08T17:41:43.448Z,-0.10
2018-02-08T17:44:11.832Z,-0.20
2018-02-08T17:46:39.358Z,-0.20
2018-02-08T17:49:07.048Z,-0.20
2018-02-08T17:51:35.361Z,-0.20
2018-02-08T17:54:02.867Z,-0.20
2018-02-08T17:56:30.368Z,-0.20
2018-02-08T17:58:57.980Z,-0.30
2018-02-08T18:01:26.265Z,-0.30
2018-02-08T18:03:54.548Z,-0.30
2018-02-08T18:06:22.956Z,-0.40
2018-02-08T18:08:50.479Z,-0.40
2018-02-08T18:11:18.791Z,-0.40
2018-02-08T18:13:46.515Z,-0.40
2018-02-08T18:16:14.831Z,-0.50
2018-02-08T18:18:42.373Z,-0.50
2018-02-08T18:21:09.894Z,-0.40
2018-02-08T18:23:38.172Z,-0.50
2018-02-08T18:26:07.536Z,-0.50
2018-02-08T18:28:35.068Z,-0.50
2018-02-08T18:31:02.579Z,-0.50
2018-02-08T18:33:30.113Z,-0.50
2018-02-08T18:35:57.720Z,-0.60
2018-02-08T18:38:26.104Z,-0.60
2018-02-08T18:40:54.385Z,-0.70
2018-02-08T18:43:22.675Z,-0.70
2018-02-08T18:45:50.245Z,-0.70
2018-02-08T18:48:17.752Z,-0.70
2018-02-08T18:50:45.369Z,-0.70
2018-02-08T18:53:13.015Z,-0.70
2018-02-08T18:55:40.527Z,-0.80
2018-02-08T18:58:08.098Z,-0.80
2018-02-08T19:00:35.698Z,-0.70
2018-02-08T19:03:03.200Z,-0.80
2018-02-08T19:05:30.803Z,-0.80
2018-02-08T19:07:58.465Z,-0.80
2018-02-08T19:10:26.026Z,-0.90
2018-02-08T19:12:53.594Z,-0.80
2018-02-08T19:15:21.139Z,-0.90
2018-02-08T19:17:48.727Z,-0.90
2018-02-08T19:20:16.604Z,-0.90
2018-02-08T19:22:44.144Z,-0.90
2018-02-08T19:25:11.664Z,-0.90
2018-02-08T19:27:40.809Z,-0.90
2018-02-08T19:30:08.373Z,-1.00
2018-02-08T19:32:35.937Z,-1.00
2018-02-08T19:35:03.856Z,-1.00
2018-02-08T19:37:32.265Z,-1.00
2018-02-08T19:40:00.705Z,-1.00
2018-02-08T19:42:28.813Z,-1.00
2018-02-08T19:44:56.372Z,-1.10
2018-02-08T19:47:23.994Z,-1.10
2018-02-08T19:49:52.385Z,-1.10
2018-02-08T19:52:19.941Z,-1.20
2018-02-08T19:54:48.306Z,-1.10
2018-02-08T19:57:15.928Z,-1.20
2018-02-08T19:59:43.483Z,-1.10
2018-02-08T20:02:11.036Z,-1.10
2018-02-08T20:04:38.668Z,-1.10
2018-02-08T20:07:06.217Z,-1.20
2018-02-08T20:09:34.735Z,-1.20
2018-02-08T20:12:02.322Z,-1.20
2018-02-08T20:14:33.402Z,-1.20
2018-02-08T20:17:00.997Z,-1.20
2018-02-08T20:19:28.983Z,-1.20
2018-02-08T20:21:56.591Z,-1.20
2018-02-08T20:24:24.906Z,-1.30
2018-02-08T20:26:52.561Z,-1.30
2018-02-08T20:29:20.137Z,-1.30
2018-02-08T20:31:48.157Z,-1.30
2018-02-08T20:34:15.746Z,-1.30
2018-02-08T20:36:43.295Z,-1.30
2018-02-08T20:39:10.830Z,-1.30
2018-02-08T20:41:39.102Z,-1.40
2018-02-08T20:44:07.426Z,-1.40
2018-02-08T20:46:35.262Z,-1.40
2018-02-08T20:49:03.239Z,-1.40
2018-02-08T20:51:30.814Z,-1.40
2018-02-08T20:53:58.345Z,-1.40
2018-02-08T20:56:25.907Z,-1.40
2018-02-08T20:58:53.458Z,-1.40
2018-02-08T21:01:21.746Z,-1.50
2018-02-08T21:03:49.422Z,-1.50
2018-02-08T21:06:17.744Z,-1.50
2018-02-08T21:08:45.273Z,-1.50
2018-02-08T21:11:13.606Z,-1.50
2018-02-08T21:13:41.890Z,-1.50
2018-02-08T21:16:09.434Z,-1.50
2018-02-08T21:18:37.000Z,-1.50
2018-02-08T21:21:05.305Z,-1.50
2018-02-08T21:23:32.865Z,-1.50
2018-02-08T21:26:00.400Z,-1.50
2018-02-08T21:28:27.926Z,-1.50
2018-02-08T21:30:55.452Z,-1.50
2018-02-08T21:33:22.976Z,-1.60
2018-02-08T21:35:50.488Z,-1.60
2018-02-08T21:38:18.000Z,-1.70
2018-02-08T21:40:45.533Z,-1.70
2018-02-08T21:43:13.050Z,-1.70
2018-02-08T21:45:40.580Z,-1.70
2018-02-08T21:48:08.116Z,-1.70
2018-02-08T21:50:35.615Z,-1.70
2018-02-08T21:53:03.144Z,-1.70
2018-02-08T21:55:31.128Z,-1.70
2018-02-08T21:57:58.799Z,-1.70
2018-02-08T22:00:26.507Z,-1.70
2018-02-08T22:02:54.028Z,-1.70
2018-02-08T22:05:21.542Z,-1.80
2018-02-08T22:07:49.058Z,-1.80
2018-02-08T22:10:16.674Z,-1.80
2018-02-08T22:12:44.199Z,-1.80
2018-02-08T22:15:11.709Z,-1.90
2018-02-08T22:17:39.846Z,-1.80
2018-02-08T22:20:07.401Z,-1.90
2018-02-08T22:22:35.669Z,-1.80
2018-02-08T22:25:03.654Z,-1.80
2018-02-08T22:27:31.937Z,-1.80
2018-02-08T22:29:59.440Z,-1.90
2018-02-08T22:32:26.972Z,-1.80
2018-02-08T22:34:54.606Z,-1.80
2018-02-08T22:37:22.879Z,-1.80
2018-02-08T22:39:51.531Z,-1.90
2018-02-08T22:42:20.044Z,-1.90
2018-02-08T22:44:48.451Z,-1.90
2018-02-08T22:47:15.984Z,-1.90
2018-02-08T22:49:44.267Z,-1.90
2018-02-08T22:52:11.760Z,-1.90
2018-02-08T22:54:39.286Z,-1.90
2018-02-08T22:57:06.803Z,-1.90
2018-02-08T22:59:34.319Z,-1.90
2018-02-08T23:02:01.891Z,-2.00
2018-02-08T23:04:29.456Z,-2.00
2018-02-08T23:06:57.030Z,-2.00
2018-02-08T23:09:24.755Z,-2.00
2018-02-08T23:11:52.322Z,-2.00
2018-02-08T23:14:19.895Z,-2.00
2018-02-08T23:16:47.528Z,-2.00
2018-02-08T23:19:15.205Z,-2.00
2018-02-08T23:21:42.818Z,-2.00
2018-02-08T23:24:11.675Z,-2.10
2018-02-08T23:26:39.225Z,-2.10
2018-02-08T23:29:07.005Z,-2.10
2018-02-08T23:31:34.594Z,-2.10
2018-02-08T23:34:02.146Z,-2.10
2018-02-08T23:36:30.481Z,-2.20
2018-02-08T23:38:58.099Z,-2.20
2018-02-08T23:41:25.675Z,-2.10
2018-02-08T23:43:53.253Z,-2.20
2018-02-08T23:46:20.824Z,-2.20
2018-02-08T23:48:48.394Z,-2.20
2018-02-08T23:51:16.133Z,-2.20
2018-02-08T23:53:44.160Z,-2.20
2018-02-08T23:56:12.498Z,-2.20
2018-02-08T23:58:40.165Z,-2.20
